Time;durP1;ratioP1;P1;durP2;ratioP2;P2;SDS_P1;SDS_P2;PMS_P1;PMS_P2;Temp;Humidity;BMP_temperature;BMP_pressure;BME280_temperature;BME280_humidity;BME280_pressure;Samples;Min_cycle;Max_cycle;Signal;HPM_P1;HPM_P2
2024/01/15 00:00:33;;;;;;;3.88;2.10;;;;;;;0.29;100.00;100337.22;4956371;29;20046;-91
2024/01/15 00:02:58;;;;;;;3.58;2.53;;;;;;;0.32;100.00;100326.22;4956740;29;20483;-91
2024/01/15 00:05:26;;;;;;;5.60;2.83;;;;;;;0.28;100.00;100320.19;4957403;29;20065;-91
2024/01/15 00:07:51;;;;;;;5.78;3.10;;;;;;;0.25;100.00;100317.59;4955961;29;20131;-91
2024/01/15 00:10:19;;;;;;;5.30;3.00;;;;;;;0.18;100.00;100302.13;4956901;29;20059;-92
2024/01/15 00:12:44;;;;;;;5.43;3.20;;;;;;;0.21;100.00;100314.97;4956396;29;20027;-91
2024/01/15 00:15:09;;;;;;;9.77;4.18;;;;;;;0.21;100.00;100320.91;4956766;28;20031;-90
2024/01/15 00:17:35;;;;;;;8.60;3.92;;;;;;;0.13;100.00;100300.34;4960537;29;20472;-91
2024/01/15 00:20:03;;;;;;;9.30;4.03;;;;;;;0.14;100.00;100312.28;4960397;28;20058;-91
2024/01/15 00:22:29;;;;;;;8.85;3.78;;;;;;;0.09;100.00;100297.72;4960439;29;20157;-91
2024/01/15 00:24:57;;;;;;;9.80;4.05;;;;;;;0.09;100.00;100300.25;4960063;29;20042;-91
2024/01/15 00:27:23;;;;;;;8.02;3.75;;;;;;;0.07;100.00;100299.38;4960093;29;20380;-91
2024/01/15 00:29:50;;;;;;;8.43;3.63;;;;;;;0.04;100.00;100299.34;4959975;29;20043;-91
2024/01/15 00:32:15;;;;;;;6.80;3.50;;;;;;;0.02;100.00;100301.84;4960025;29;20271;-91
2024/01/15 00:34:43;;;;;;;10.18;3.85;;;;;;;-0.02;100.00;100303.47;4959987;29;20498;-91
2024/01/15 00:37:08;;;;;;;13.82;5.22;;;;;;;-0.15;100.00;100278.56;4950758;23;20055;-91
2024/01/15 00:39:34;;;;;;;14.55;5.40;;;;;;;-0.12;100.00;100280.31;4940327;29;20064;-91
2024/01/15 00:41:59;;;;;;;10.65;4.78;;;;;;;-0.10;100.00;100284.63;4940831;29;20429;-91
2024/01/15 00:44:24;;;;;;;10.70;4.60;;;;;;;-0.10;100.00;100282.06;4940508;29;20031;-91
2024/01/15 00:46:50;;;;;;;11.38;4.50;;;;;;;-0.12;100.00;100277.78;5126661;23;20075;-91
2024/01/15 00:49:24;;;;;;;11.50;4.68;;;;;;;-0.26;100.00;100251.97;4959733;29;20030;-91
2024/01/15 00:51:49;;;;;;;12.15;4.57;;;;;;;-0.18;100.00;100274.25;4959802;29;20023;-91
2024/01/15 00:54:15;;;;;;;12.55;4.60;;;;;;;-0.22;100.00;100264.81;4959168;29;20065;-91
2024/01/15 00:56:40;;;;;;;13.68;5.18;;;;;;;-0.22;100.00;100266.53;4959197;29;20031;-91
2024/01/15 00:59:10;;;;;;;11.27;4.90;;;;;;;-0.27;100.00;100258.78;4959321;29;20486;-90
2024/01/15 01:01:36;;;;;;;11.65;4.75;;;;;;;-0.25;100.00;100262.22;4958975;29;20484;-90
2024/01/15 01:04:01;;;;;;;10.02;4.10;;;;;;;-0.28;100.00;100257.06;4959281;29;20031;-91
2024/01/15 01:06:26;;;;;;;9.75;4.15;;;;;;;-0.35;100.00;100248.41;4958923;29;20038;-90
2024/01/15 01:08:54;;;;;;;11.07;4.03;;;;;;;-0.27;100.00;100255.34;4959380;29;20051;-89
2024/01/15 01:11:20;;;;;;;8.60;3.70;;;;;;;-0.25;100.00;100264.78;4959339;29;20540;-91
2024/01/15 01:13:45;;;;;;;8.38;3.75;;;;;;;-0.32;100.00;100251.03;4958956;29;20058;-90
2024/01/15 01:16:10;;;;;;;8.20;3.47;;;;;;;-0.25;100.00;100257.13;4959054;29;20028;-90
2024/01/15 01:18:36;;;;;;;6.82;3.20;;;;;;;-0.27;100.00;100256.22;4958719;29;20055;-90
2024/01/15 01:21:01;;;;;;;6.45;2.70;;;;;;;-0.24;100.00;100253.75;4959055;29;20034;-90
2024/01/15 01:23:26;;;;;;;5.75;2.75;;;;;;;-0.24;100.00;100251.19;4959133;29;20526;-90
2024/01/15 01:25:52;;;;;;;5.35;2.40;;;;;;;-0.24;100.00;100253.75;4965573;23;20062;-91
2024/01/15 01:28:20;;;;;;;3.70;2.28;;;;;;;-0.29;100.00;100255.34;4957815;29;20468;-90
2024/01/15 01:30:45;;;;;;;3.67;1.85;;;;;;;-0.32;100.00;100245.94;4958025;29;20037;-90
2024/01/15 01:33:10;;;;;;;2.78;1.98;;;;;;;-0.30;100.00;100256.16;4958219;29;20126;-90
2024/01/15 01:35:36;;;;;;;4.28;1.83;;;;;;;-0.32;100.00;100257.81;4958046;29;20034;-90
2024/01/15 01:38:01;;;;;;;2.53;1.55;;;;;;;-0.34;100.00;100259.50;4958196;29;20387;-90
2024/01/15 01:40:26;;;;;;;2.10;1.52;;;;;;;-0.35;100.00;100257.78;4958488;29;20086;-90
2024/01/15 01:42:58;;;;;;;3.45;1.30;;;;;;;-0.36;100.00;100250.97;4957663;29;20061;-91
2024/01/15 01:45:23;;;;;;;3.95;1.80;;;;;;;-0.37;100.00;100256.88;4957511;29;20118;-90
2024/01/15 01:47:48;;;;;;;2.45;1.70;;;;;;;-0.49;100.00;100247.28;4957629;29;20483;-90
2024/01/15 01:50:14;;;;;;;1.30;1.20;;;;;;;-0.45;100.00;100250.78;4957941;29;20070;-90
2024/01/15 01:52:43;;;;;;;2.40;1.50;;;;;;;-0.45;100.00;100249.06;4957997;29;20063;-91
2024/01/15 01:55:10;;;;;;;3.10;1.52;;;;;;;-0.45;100.00;100259.28;4959182;29;20428;-90
2024/01/15 01:57:36;;;;;;;2.78;1.33;;;;;;;-0.46;100.00;100257.56;4958240;29;20055;-91
2024/01/15 02:00:03;;;;;;;3.83;1.80;;;;;;;-0.49;100.00;100255.81;4958578;29;20066;-91
2024/01/15 02:02:30;;;;;;;3.47;1.70;;;;;;;-0.54;100.00;100251.44;4958245;29;20445;-90
2024/01/15 02:04:55;;;;;;;4.85;1.60;;;;;;;-0.50;100.00;100255.75;4957858;29;20110;-90
2024/01/15 02:07:21;;;;;;;2.72;1.48;;;;;;;-0.48;100.00;100259.19;4957661;29;20067;-89
2024/01/15 02:09:46;;;;;;;1.88;1.58;;;;;;;-0.48;100.00;100256.66;4957936;29;20027;-90
2024/01/15 02:12:12;;;;;;;1.25;1.20;;;;;;;-0.47;100.00;100259.25;4958152;29;20024;-90
2024/01/15 02:14:39;;;;;;;1.20;1.10;;;;;;;-0.51;100.00;100242.16;4958118;29;20034;-90
2024/01/15 02:17:04;;;;;;;1.40;1.25;;;;;;;-0.43;100.00;100249.09;4957988;29;20035;-90
2024/01/15 02:19:29;;;;;;;1.23;1.13;;;;;;;-0.48;100.00;100236.25;4957774;29;20028;-90
2024/01/15 02:21:55;;;;;;;2.03;1.20;;;;;;;-0.43;100.00;100246.53;4957607;29;20074;-91
2024/01/15 02:24:21;;;;;;;1.60;1.40;;;;;;;-0.45;100.00;100249.06;4956962;29;20028;-90
2024/01/15 02:26:46;;;;;;;4.18;1.50;;;;;;;-0.43;100.00;100242.31;4956840;29;20092;-90
2024/01/15 02:29:12;;;;;;;1.48;1.38;;;;;;;-0.44;100.00;100242.28;4957658;29;20031;-90
2024/01/15 02:31:38;;;;;;;2.13;1.30;;;;;;;-0.45;100.00;100241.44;4957249;29;20027;-90
2024/01/15 02:34:04;;;;;;;1.27;1.07;;;;;;;-0.47;100.00;100243.97;4957352;29;20043;-88
2024/01/15 02:36:32;;;;;;;1.63;1.17;;;;;;;-0.47;100.00;100240.53;4957140;29;20038;-90
2024/01/15 02:38:57;;;;;;;1.48;1.10;;;;;;;-0.50;100.00;100241.34;4956267;28;20468;-90
2024/01/15 02:41:22;;;;;;;1.88;1.23;;;;;;;-0.47;100.00;100249.06;4956923;29;20030;-90
2024/01/15 02:43:54;;;;;;;3.92;1.50;;;;;;;-0.49;100.00;100250.72;4956753;29;20024;-90
2024/01/15 02:46:19;;;;;;;2.85;1.20;;;;;;;-0.57;100.00;100234.41;4956701;29;20035;-90
2024/01/15 02:48:44;;;;;;;1.75;1.20;;;;;;;-0.53;100.00;100243.81;4956883;29;20027;-90
2024/01/15 02:51:09;;;;;;;3.75;1.35;;;;;;;-0.53;100.00;100251.47;4957556;29;20034;-90
2024/01/15 02:53:36;;;;;;;1.17;0.95;;;;;;;-0.63;100.00;100229.16;4956430;29;20032;-90
2024/01/15 02:56:01;;;;;;;1.48;0.90;;;;;;;-0.55;100.00;100248.00;4957175;29;20071;-90
2024/01/15 02:58:26;;;;;;;1.90;0.93;;;;;;;-0.58;100.00;100242.00;4956815;29;20113;-90
2024/01/15 03:00:52;;;;;;;1.73;0.80;;;;;;;-0.66;100.00;100232.53;4956567;29;20031;-90
2024/01/15 03:03:17;;;;;;;3.58;1.10;;;;;;;-0.59;100.00;100243.69;4956771;29;20020;-90
2024/01/15 03:05:42;;;;;;;2.95;1.08;;;;;;;-0.66;100.00;100241.84;4957241;29;20388;-89
2024/01/15 03:08:07;;;;;;;1.35;1.10;;;;;;;-0.66;100.00;100249.47;4956804;29;20019;-90
2024/01/15 03:10:54;;;;;;;2.38;0.90;;;;;;;-0.62;100.00;100253.81;4956603;29;20027;-89
2024/01/15 03:13:35;;;;;;;;;;;;;;;-0.64;100.00;100252.94;4957044;29;20073;-91
2024/01/15 03:16:10;;;;;;;1.58;1.05;;;;;;;-0.82;100.00;100225.38;4956808;29;19915;-90
2024/01/15 03:18:47;;;;;;;2.47;1.10;;;;;;;-0.81;100.00;100224.53;4956820;29;20028;-90
2024/01/15 03:21:13;;;;;;;4.28;1.38;;;;;;;-0.76;100.00;100234.81;4956774;29;20055;-90
2024/01/15 03:23:40;;;;;;;2.75;1.40;;;;;;;-0.83;100.00;100214.31;4956285;29;20054;-90
2024/01/15 03:26:27;;;;;;;1.67;0.98;;;;;;;-0.74;100.00;100240.81;4956101;28;20044;-90
2024/01/15 03:29:29;;;;;;;;;;;;;;;-0.67;100.00;100245.22;4955806;29;20035;-90
2024/01/15 03:31:54;;;;;;;3.17;0.90;;;;;;;-0.84;100.00;100219.38;4956216;29;20407;-90
2024/01/15 03:34:29;;;;;;;3.13;0.98;;;;;;;-0.83;100.00;100213.44;4956007;29;20073;-90
2024/01/15 03:37:00;;;;;;;1.75;1.20;;;;;;;-0.88;100.00;100204.88;4955459;29;20031;-90
2024/01/15 03:39:40;;;;;;;4.63;1.30;;;;;;;-0.77;100.00;100221.25;4955420;29;20036;-90
2024/01/15 03:42:06;;;;;;;1.92;1.20;;;;;;;-0.70;100.00;100237.53;4955794;29;20038;-90
2024/01/15 03:44:44;;;;;;;2.03;0.98;;;;;;;-0.84;100.00;100214.28;4955487;29;20027;-89
2024/01/15 03:47:09;;;;;;;1.83;1.00;;;;;;;-0.74;100.00;100230.63;4955992;29;20031;-90
2024/01/15 03:49:42;;;;;;;2.58;1.15;;;;;;;-0.72;100.00;100234.91;4955521;28;20023;-90
2024/01/15 03:52:10;;;;;;;2.92;0.98;;;;;;;-0.71;100.00;100228.16;4938848;29;20480;-91
2024/01/15 03:54:37;;;;;;;2.53;1.30;;;;;;;-0.89;100.00;100201.44;4955743;29;20469;-90
2024/01/15 03:57:15;;;;;;;2.25;1.25;;;;;;;-0.91;100.00;100182.75;4954466;29;20038;-90
2024/01/15 03:59:41;;;;;;;1.52;1.00;;;;;;;-0.79;100.00;100211.00;4956866;29;20023;-90
2024/01/15 04:02:08;;;;;;;2.83;1.25;;;;;;;-0.80;100.00;100194.03;4956107;29;20039;-90
2024/01/15 04:04:40;;;;;;;6.07;1.30;;;;;;;-0.78;100.00;100188.94;4956020;29;20067;-90
2024/01/15 04:07:26;;;;;;;1.90;1.27;;;;;;;-0.73;100.00;100183.94;4956075;29;20480;-90
2024/01/15 04:09:51;;;;;;;;;;;;;;;-0.58;100.00;100201.22;4956443;29;20046;-90
2024/01/15 04:12:17;;;;;;;4.97;1.47;;;;;;;-0.55;100.00;100211.47;4961311;23;19915;-90
2024/01/15 04:14:45;;;;;;;3.53;1.50;;;;;;;-0.53;100.00;100205.56;4936433;29;20111;-90
2024/01/15 04:17:10;;;;;;;5.03;1.35;;;;;;;-0.57;100.00;100192.75;4937056;29;20024;-91
2024/01/15 04:19:38;;;;;;;3.35;1.10;;;;;;;-0.50;100.00;100195.44;4937079;29;20345;-90
2024/01/15 04:22:03;;;;;;;3.20;1.20;;;;;;;-0.44;100.00;100192.16;4961845;23;20074;-90
2024/01/15 04:24:31;;;;;;;5.18;1.48;;;;;;;-0.48;100.00;100187.81;4957545;29;20464;-90
2024/01/15 04:26:57;;;;;;;3.05;1.15;;;;;;;-0.41;100.00;100191.34;4956085;29;20027;-90
2024/01/15 04:29:22;;;;;;;2.47;1.63;;;;;;;-0.42;100.00;100195.59;4955881;29;20391;-91
2024/01/15 04:31:47;;;;;;;2.53;1.10;;;;;;;-0.37;100.00;100200.78;4955653;29;20070;-91
2024/01/15 04:34:13;;;;;;;3.90;1.50;;;;;;;-0.39;100.00;100193.09;4955622;29;20035;-91
2024/01/15 04:36:40;;;;;;;2.03;1.15;;;;;;;-0.36;100.00;100197.41;4955538;29;20019;-90
2024/01/15 04:39:08;;;;;;;1.30;1.20;;;;;;;-0.37;100.00;100190.59;4955842;29;20027;-90
2024/01/15 04:41:33;;;;;;;2.67;1.38;;;;;;;-0.31;100.00;100203.44;4955474;29;20031;-90
2024/01/15 04:44:01;;;;;;;2.85;1.20;;;;;;;-0.32;100.00;100192.41;4956084;29;20106;-90
2024/01/15 04:46:29;;;;;;;4.45;1.50;;;;;;;-0.39;100.00;100177.78;4956140;29;20050;-91
2024/01/15 04:48:54;;;;;;;4.95;1.63;;;;;;;-0.30;100.00;100181.38;4955974;29;20070;-90
2024/01/15 04:51:20;;;;;;;1.55;1.17;;;;;;;-0.30;100.00;100171.16;4955830;29;20023;-90
2024/01/15 04:53:45;;;;;;;3.65;1.30;;;;;;;-0.29;100.00;100171.19;4955333;29;20031;-91
2024/01/15 04:56:10;;;;;;;2.55;1.60;;;;;;;-0.27;100.00;100177.19;4955447;29;20058;-90
2024/01/15 04:58:35;;;;;;;1.65;1.02;;;;;;;-0.27;100.00;100182.28;4955638;29;20031;-90
2024/01/15 05:01:01;;;;;;;1.20;1.10;;;;;;;-0.30;100.00;100189.84;4955543;28;20127;-90
2024/01/15 05:03:26;;;;;;;2.20;1.33;;;;;;;-0.30;100.00;100189.84;4959528;28;20034;-90
2024/01/15 05:05:51;;;;;;;3.35;1.30;;;;;;;-0.32;100.00;100178.75;4959311;29;20050;-90
2024/01/15 05:08:17;;;;;;;1.48;1.30;;;;;;;-0.35;100.00;100183.84;4959057;29;20067;-90
2024/01/15 05:10:42;;;;;;;1.58;0.98;;;;;;;-0.39;100.00;100177.78;4959199;29;20031;-91
2024/01/15 05:13:07;;;;;;;1.90;0.80;;;;;;;-0.39;100.00;100179.50;4959590;29;20052;-91
2024/01/15 05:15:36;;;;;;;2.15;1.00;;;;;;;-0.37;100.00;100167.63;4959128;29;20027;-91
2024/01/15 05:18:01;;;;;;;2.40;0.82;;;;;;;-0.38;100.00;100165.91;4959153;29;20133;-91
2024/01/15 05:20:26;;;;;;;2.30;0.90;;;;;;;-0.39;100.00;100161.66;4958691;29;20067;-90
2024/01/15 05:22:54;;;;;;;2.03;0.90;;;;;;;-0.36;100.00;100157.47;4959255;29;20027;-91
2024/01/15 05:25:19;;;;;;;3.33;1.10;;;;;;;-0.40;100.00;100150.59;4959380;29;20046;-91
2024/01/15 05:27:47;;;;;;;2.33;0.90;;;;;;;-0.37;100.00;100160.00;4958908;29;20110;-90
2024/01/15 05:30:13;;;;;;;0.80;0.80;;;;;;;-0.41;100.00;100159.09;4959217;29;20035;-91
2024/01/15 05:32:38;;;;;;;0.90;0.70;;;;;;;-0.40;100.00;100168.44;4959452;29;20027;-91
2024/01/15 05:35:09;;;;;;;1.88;0.88;;;;;;;-0.43;100.00;100162.41;4958698;29;20558;-91
2024/01/15 05:37:35;;;;;;;1.10;0.90;;;;;;;-0.41;100.00;100171.81;4954668;29;20027;-90
2024/01/15 05:40:00;;;;;;;1.00;0.82;;;;;;;-0.52;100.00;100163.97;4958531;29;20078;-90
2024/01/15 05:42:26;;;;;;;1.05;0.90;;;;;;;-0.47;100.00;100172.56;4958147;29;20032;-90
2024/01/15 05:44:51;;;;;;;1.05;0.93;;;;;;;-0.48;100.00;100163.19;4958658;29;20050;-90
2024/01/15 05:47:17;;;;;;;2.03;0.98;;;;;;;-0.48;100.00;100164.88;4957894;29;20031;-90
2024/01/15 05:50:04;;;;;;;1.38;1.20;;;;;;;-0.49;100.00;100166.59;4943567;29;20043;-91
2024/01/15 05:52:33;;;;;;;2.58;1.20;;;;;;;-0.67;100.00;100133.06;4958662;29;20502;-91
2024/01/15 05:55:19;;;;;;;1.55;0.90;;;;;;;-0.56;100.00;100159.63;4958632;29;20031;-92
2024/01/15 05:57:56;;;;;;;2.42;1.27;;;;;;;-0.69;100.00;100139.84;4958089;29;20023;-92
2024/01/15 06:00:21;;;;;;;1.35;1.23;;;;;;;-0.65;100.00;100150.13;4958671;29;20163;-92
2024/01/15 06:03:42;;;;;;;2.03;1.10;;;;;;;-0.56;100.00;100158.78;4958170;29;20484;-92
2024/01/15 06:06:08;;;;;;;1.17;1.08;;;;;;;-0.68;100.00;100147.53;4958410;29;20122;-92
2024/01/15 06:08:59;;;;;;;1.60;1.10;;;;;;;-0.63;100.00;100163.78;4958236;29;20023;-91
2024/01/15 06:11:32;;;;;;;2.45;1.08;;;;;;;-0.76;100.00;100136.31;4907790;29;20070;-91
2024/01/15 06:14:07;;;;;;;1.00;1.00;;;;;;;-0.77;100.00;100137.16;4957180;28;20027;-91
2024/01/15 06:16:33;;;;;;;1.58;1.10;;;;;;;-0.90;100.00;100118.19;4956720;29;20091;-91
2024/01/15 06:19:54;;;;;;;2.65;1.10;;;;;;;-0.90;100.00;100113.09;4957806;29;20023;-91
2024/01/15 06:25:36;;;;;;;1.17;1.17;;;;;;;-0.82;100.00;100128.53;4957361;29;20503;-90
2024/01/15 06:28:01;;;;;;;1.58;1.20;;;;;;;-0.72;100.00;100132.16;4957086;29;20086;-90
2024/01/15 06:30:26;;;;;;;1.80;1.40;;;;;;;-0.76;100.00;100122.72;4956798;29;20024;-89
2024/01/15 06:32:52;;;;;;;3.55;1.30;;;;;;;-0.65;100.00;100141.63;4957149;29;20388;-90
2024/01/15 06:35:20;;;;;;;1.52;1.42;;;;;;;-0.65;100.00;100139.94;4957300;29;20035;-90
2024/01/15 06:37:49;;;;;;;3.42;1.60;;;;;;;-0.71;100.00;100129.63;4956114;29;20110;-89
2024/01/15 06:40:29;;;;;;;3.60;1.60;;;;;;;-0.76;100.00;100118.50;4957208;29;20030;-90
2024/01/15 06:42:55;;;;;;;2.75;1.50;;;;;;;-0.65;100.00;100131.41;4957111;29;20027;-89
2024/01/15 06:45:26;;;;;;;1.38;1.27;;;;;;;-0.82;100.00;100106.50;4956510;29;20559;-89
2024/01/15 06:47:51;;;;;;;2.13;1.50;;;;;;;-0.68;100.00;100126.28;4956657;29;20031;-90
2024/01/15 06:50:23;;;;;;;2.78;1.60;;;;;;;-0.80;100.00;100103.97;4957036;29;20027;-89
2024/01/15 06:52:49;;;;;;;1.95;1.50;;;;;;;-0.65;100.00;100124.66;4955934;29;20036;-89
2024/01/15 06:55:17;;;;;;;1.65;1.48;;;;;;;-0.76;100.00;100108.31;4955569;29;20030;-90
2024/01/15 06:58:13;;;;;;;3.78;1.70;;;;;;;-0.59;100.00;100143.41;4955759;29;20054;-88
2024/01/15 07:03:04;;;;;;;2.05;1.52;;;;;;;-0.61;100.00;100140.84;4944071;23;20106;-87
2024/01/15 07:05:30;;;;;;;1.52;1.38;;;;;;;-0.58;100.00;100134.94;4936157;29;20307;-88
2024/01/15 07:07:56;;;;;;;2.38;1.60;;;;;;;-0.60;100.00;100137.47;4936430;29;20040;-87
2024/01/15 07:10:21;;;;;;;1.73;1.45;;;;;;;-0.61;100.00;100130.66;4938063;29;20035;-87
2024/01/15 07:12:46;;;;;;;1.33;1.25;;;;;;;-0.76;100.00;100117.63;4936041;29;20063;-88
2024/01/15 07:15:17;;;;;;;3.10;1.50;;;;;;;-0.69;100.00;100138.16;4936693;29;20071;-88
2024/01/15 07:17:43;;;;;;;1.10;1.10;;;;;;;-0.67;100.00;100140.72;4937006;29;20075;-88
2024/01/15 07:20:11;;;;;;;2.05;1.20;;;;;;;-0.68;100.00;100147.53;4936199;29;20472;-87
2024/01/15 07:22:37;;;;;;;1.13;1.13;;;;;;;-0.69;100.00;100135.59;4936548;29;20392;-87
2024/01/15 07:25:02;;;;;;;1.50;1.40;;;;;;;-0.71;100.00;100133.88;4936346;29;20102;-87
2024/01/15 07:27:27;;;;;;;1.55;1.45;;;;;;;-0.73;100.00;100140.63;4936854;29;20019;-87
2024/01/15 07:29:53;;;;;;;1.50;1.40;;;;;;;-0.85;100.00;100123.41;4936280;29;20027;-87
2024/01/15 07:36:11;;;;;;;1.90;1.70;;;;;;;-0.72;100.00;100150.81;4936600;29;20075;-88
2024/01/15 07:38:39;;;;;;;;;;;;;;;-0.73;100.00;100145.72;4936611;29;20429;-88
2024/01/15 07:41:04;;;;;;;1.85;1.63;;;;;;;-0.73;100.00;100151.66;4944409;23;19914;-87
2024/01/15 07:43:30;;;;;;;1.80;1.70;;;;;;;-0.72;100.00;100152.53;4955546;29;20061;-87
2024/01/15 07:45:58;;;;;;;2.47;1.77;;;;;;;-0.71;100.00;100138.97;4955179;29;20027;-87
2024/01/15 07:48:23;;;;;;;3.80;2.38;;;;;;;-0.74;100.00;100133.78;4955861;29;20094;-88
2024/01/15 07:50:49;;;;;;;3.10;2.20;;;;;;;-0.71;100.00;100152.56;4954865;29;20031;-87
2024/01/15 07:53:14;;;;;;;2.85;2.30;;;;;;;-0.73;100.00;100135.53;4955733;29;20107;-89
2024/01/15 07:55:39;;;;;;;3.58;2.65;;;;;;;-0.64;100.00;100154.41;4955202;29;20126;-89
2024/01/15 07:58:04;;;;;;;3.95;2.65;;;;;;;-0.68;100.00;100154.31;4955974;29;20027;-88
2024/01/15 08:09:48;;;;;;;4.43;2.85;;;;;;;-0.82;100.00;100136.19;4933401;29;20028;-88
2024/01/15 08:12:14;;;;;;;4.93;3.10;;;;;;;-0.60;100.00;100173.16;4951234;29;20042;-87
2024/01/15 08:14:40;;;;;;;4.47;2.80;;;;;;;-0.60;100.00;100180.81;4955779;29;20023;-89
2024/01/15 08:17:05;;;;;;;3.60;2.70;;;;;;;-0.55;100.00;100188.53;4945764;28;20114;-88
2024/01/15 08:19:31;;;;;;;5.13;2.92;;;;;;;-0.54;100.00;100192.81;4955252;29;20038;-89
2024/01/15 08:21:56;;;;;;;4.90;3.40;;;;;;;-0.57;100.00;100193.63;4958947;28;20459;-90
2024/01/15 08:24:22;;;;;;;6.03;3.55;;;;;;;-0.53;100.00;100189.44;4958417;28;20063;-90
2024/01/15 08:26:47;;;;;;;5.05;3.20;;;;;;;-0.59;100.00;100174.00;4955317;28;20036;-90
2024/01/15 08:29:12;;;;;;;4.88;3.50;;;;;;;-0.64;100.00;100163.72;4955735;29;20026;-91
2024/01/15 08:31:38;;;;;;;4.05;3.00;;;;;;;-0.58;100.00;100178.28;4955136;29;20031;-89
2024/01/15 08:34:03;;;;;;;3.22;2.70;;;;;;;-0.64;100.00;100171.38;4955672;29;20015;-89
2024/01/15 08:42:53;;;;;;;4.10;2.60;;;;;;;-0.53;100.00;100182.63;4958949;29;20066;-89
2024/01/15 08:52:08;;;;;;;4.85;2.90;;;;;;;-0.65;100.00;100155.22;4898637;29;20128;-87
2024/01/15 08:54:34;;;;;;;4.40;2.92;;;;;;;-0.64;100.00;100156.97;4923532;29;20039;-86
2024/01/15 09:06:28;;;;;;;4.85;2.80;;;;;;;-0.55;100.00;100161.34;4935898;29;20111;-89
2024/01/15 09:11:51;;;;;;;3.03;2.47;;;;;;;-0.49;100.00;100165.69;5010171;23;20504;-88
2024/01/15 09:14:24;;;;;;;3.63;2.50;;;;;;;-0.62;100.00;100139.97;4939376;29;20492;-88
2024/01/15 09:17:11;;;;;;;2.40;2.20;;;;;;;-0.38;100.00;100187.16;4937112;29;20047;-88
2024/01/15 09:23:01;;;;;;;2.72;2.00;;;;;;;-0.50;100.00;100153.78;4935343;29;20577;-87
2024/01/15 09:25:45;;;;;;;3.05;1.73;;;;;;;-0.47;100.00;100148.75;4943266;29;20118;-86
2024/01/15 09:28:13;;;;;;;2.85;1.58;;;;;;;-0.51;100.00;100132.53;4938806;29;20020;-87
2024/01/15 09:36:56;;;;;;;2.53;1.30;;;;;;;-0.24;100.00;100164.50;4958048;29;20090;-87
2024/01/15 09:39:41;;;;;;;4.33;1.10;;;;;;;-0.41;100.00;100133.59;4957712;29;20111;-88
2024/01/15 09:42:13;;;;;;;0.80;0.75;;;;;;;-0.50;100.00;100128.28;4957886;29;20894;-87
2024/01/15 09:44:54;;;;;;;1.30;1.10;;;;;;;-0.35;100.00;100168.53;4947886;29;20366;-88
2024/01/15 09:47:43;;;;;;;1.65;1.00;;;;;;;-0.47;100.00;100153.84;4946193;29;20078;-88
2024/01/15 09:50:18;;;;;;;2.80;0.90;;;;;;;-0.53;100.00;100148.66;4914784;29;20065;-87
2024/01/15 09:52:54;;;;;;;2.50;1.33;;;;;;;-0.45;100.00;100169.19;4945070;29;20059;-88
2024/01/15 09:55:37;;;;;;;3.42;1.13;;;;;;;-0.34;100.00;100193.19;4957115;29;20031;-88
2024/01/15 09:58:09;;;;;;;3.67;0.90;;;;;;;-0.44;100.00;100181.09;4957653;29;20031;-88
2024/01/15 10:00:51;;;;;;;1.98;1.00;;;;;;;-0.41;100.00;100178.59;4956495;29;20044;-87
2024/01/15 10:03:33;;;;;;;1.67;1.05;;;;;;;-0.49;100.00;100174.22;4957792;29;20028;-87
2024/01/15 10:08:58;;;;;;;2.25;1.27;;;;;;;-0.32;100.00;100164.34;5012690;23;20055;-87
2024/01/15 10:11:48;;;;;;;2.05;1.35;;;;;;;0.00;100.00;100204.03;4936152;29;20062;-86
2024/01/15 10:14:32;;;;;;;2.83;1.63;;;;;;;0.04;100.00;100205.78;4951121;29;20036;-86
2024/01/15 10:16:57;;;;;;;3.35;1.48;;;;;;;0.05;100.00;100193.91;5046608;23;20150;-86
2024/01/15 10:19:26;;;;;;;2.78;1.42;;;;;;;0.11;100.00;100192.28;4984320;23;20143;-88
2024/01/15 10:22:26;;;;;;;3.97;1.50;;;;;;;0.31;100.00;100201.97;4972341;28;20034;-87
2024/01/15 10:25:27;;;;;;;1.35;1.23;;;;;;;0.50;100.00;100194.59;4957508;28;20058;-89
2024/01/15 10:28:19;;;;;;;3.67;1.63;;;;;;;0.71;100.00;100194.06;5012527;23;20055;-89
2024/01/15 10:31:37;;;;;;;3.80;1.50;;;;;;;0.86;100.00;100204.50;4922769;29;20101;-87
2024/01/15 10:34:26;;;;;;;3.20;1.67;;;;;;;0.92;100.00;100203.72;4938358;29;20035;-90
2024/01/15 10:36:55;;;;;;;2.42;1.67;;;;;;;0.73;100.00;100175.38;4951526;28;20586;-90
2024/01/15 10:39:22;;;;;;;2.20;1.60;;;;;;;0.92;100.00;100201.16;5069288;23;20058;-90
2024/01/15 10:41:55;;;;;;;3.67;1.67;;;;;;;0.71;100.00;100166.81;4973711;28;20093;-91
2024/01/15 10:47:28;;;;;;;3.20;1.80;;;;;;;0.79;100.00;100194.19;4941344;29;20455;-91
2024/01/15 10:50:07;;;;;;;3.40;1.63;;;;;;;0.61;100.00;100173.50;4946747;29;20039;-91
2024/01/15 10:55:21;;;;;;;4.70;1.80;;;;;;;0.64;100.00;100179.47;4982553;28;20051;-91
2024/01/15 10:57:53;;;;;;;4.60;2.00;;;;;;;0.50;100.00;100158.84;4956976;29;20463;-90
2024/01/15 11:00:30;;;;;;;5.25;2.10;;;;;;;0.55;100.00;100178.50;4956185;28;20471;-91
2024/01/15 11:03:30;;;;;;;4.93;2.17;;;;;;;0.74;100.00;100199.22;5011202;23;20468;-90
2024/01/15 11:05:59;;;;;;;2.75;1.92;;;;;;;0.73;100.00;100195.81;4956586;29;20038;-90
2024/01/15 11:09:07;;;;;;;3.40;2.22;;;;;;;0.72;100.00;100188.13;4957266;29;20024;-91
2024/01/15 11:11:35;;;;;;;3.20;1.90;;;;;;;0.61;100.00;100167.53;4956489;29;20051;-90
2024/01/15 11:18:05;;;;;;;2.97;1.67;;;;;;;1.02;100.00;100197.06;4954721;29;20555;-90
2024/01/15 11:21:08;;;;;;;3.30;1.70;;;;;;;1.17;100.00;100201.50;4954327;29;20102;-89
2024/01/15 11:26:49;;;;;;;1.75;1.52;;;;;;;1.30;100.00;100188.03;4956172;29;20078;-89
2024/01/15 11:29:27;;;;;;;4.05;1.67;;;;;;;1.33;100.00;100195.75;4956800;29;20114;-89
2024/01/15 11:32:31;;;;;;;3.65;1.70;;;;;;;1.22;100.00;100200.72;4956949;29;20469;-91
2024/01/15 11:35:21;;;;;;;4.65;1.92;;;;;;;0.99;100.00;100207.22;4956209;29;20035;-91
2024/01/15 11:37:52;;;;;;;2.50;1.80;;;;;;;0.87;100.00;100202.81;4955550;29;20067;-89
2024/01/15 11:43:13;;;;;;;2.28;1.92;;;;;;;0.39;100.00;100166.38;4956635;29;20102;-90
2024/01/15 11:45:54;;;;;;;2.25;1.60;;;;;;;0.38;100.00;100169.75;4956157;29;20114;-89
2024/01/15 11:48:53;;;;;;;2.35;1.55;;;;;;;0.35;100.00;100178.19;4956076;29;20082;-90
2024/01/15 11:51:50;;;;;;;2.80;1.50;;;;;;;0.54;100.00;100206.59;4956458;29;20136;-91
2024/01/15 11:54:16;;;;;;;2.00;1.42;;;;;;;0.55;100.00;100200.66;4956420;29;20139;-90
2024/01/15 12:00:33;;;;;;;2.55;1.50;;;;;;;0.82;100.00;100219.75;4958153;29;20178;-88
2024/01/15 12:03:05;;;;;;;1.70;1.60;;;;;;;0.68;100.00;100202.53;4954724;28;20023;-90
2024/01/15 12:06:29;;;;;;;3.38;1.88;;;;;;;0.82;100.00;100230.84;4937341;29;20055;-89
2024/01/15 12:09:07;;;;;;;2.25;1.90;;;;;;;0.71;100.00;100223.00;4915508;29;20072;-89
2024/01/15 12:11:36;;;;;;;1.92;1.80;;;;;;;0.71;100.00;100223.00;4916962;29;20036;-90
2024/01/15 12:16:31;;;;;;;2.33;1.95;;;;;;;0.50;100.00;100238.00;4934466;29;20040;-92
2024/01/15 12:19:22;;;;;;;2.10;1.83;;;;;;;0.38;100.00;100249.75;4977218;23;20051;-91
2024/01/15 12:24:28;;;;;;;3.13;2.30;;;;;;;0.17;100.00;100246.81;4981170;23;20058;-89
2024/01/15 12:26:53;;;;;;;2.58;2.20;;;;;;;0.11;100.00;100255.22;4974061;28;20122;-89
2024/01/15 12:29:18;;;;;;;2.22;2.03;;;;;;;-0.04;100.00;100235.41;4974251;28;20434;-88
2024/01/15 12:31:51;;;;;;;2.75;2.20;;;;;;;-0.03;100.00;100252.44;4974208;28;20539;-88
2024/01/15 12:34:17;;;;;;;2.30;2.10;;;;;;;-0.07;100.00;100248.09;4968235;28;20059;-87
2024/01/15 12:36:42;;;;;;;2.17;1.98;;;;;;;-0.08;100.00;100252.34;4957528;28;20188;-86
2024/01/15 12:39:11;;;;;;;2.00;1.90;;;;;;;-0.06;100.00;100250.69;4974173;28;20042;-86
2024/01/15 12:41:38;;;;;;;2.22;2.03;;;;;;;-0.06;100.00;100260.91;4973798;28;20023;-87
2024/01/15 12:44:31;;;;;;;2.85;2.30;;;;;;;-0.10;100.00;100268.44;5012465;23;20056;-87
2024/01/15 12:47:12;;;;;;;2.40;2.20;;;;;;;-0.33;100.00;100234.03;4935517;29;20060;-87
2024/01/15 13:13:48;;;;;;;3.25;2.50;;;;;;;-0.22;100.00;100292.88;4874439;29;20045;-89
2024/01/15 13:19:40;;;;;;;5.85;3.20;;;;;;;-0.34;100.00;100275.66;4876615;29;20035;-89
2024/01/15 13:33:05;;;;;;;3.83;2.58;;;;;;;-0.43;100.00;100244.88;4977597;28;20129;-95
2024/01/15 14:06:24;;;;;;;2.45;2.00;;;;;;;-0.12;100.00;100285.44;4956103;29;20086;-86